createdAt,value
2018-02-26T13:29:42.805Z,1022.63
2018-02-26T13:30:44.640Z,1022.57
2018-02-26T13:31:46.487Z,1022.60
2018-02-26T13:32:48.335Z,1022.59
2018-02-26T13:33:50.138Z,1022.65
2018-02-26T13:34:51.927Z,1022.64
2018-02-26T13:35:53.779Z,1022.74
2018-02-26T13:36:55.633Z,1022.68
2018-02-26T13:37:57.504Z,1022.70
2018-02-26T13:39:11.631Z,1022.67
2018-02-26T13:40:13.534Z,1022.66
2018-02-26T13:41:15.411Z,1022.65
2018-02-26T13:42:17.288Z,1022.56
2018-02-26T13:43:19.104Z,1022.53
2018-02-26T13:44:20.923Z,1022.59
2018-02-26T13:45:22.774Z,1022.70
2018-02-26T13:46:24.655Z,1022.65
2018-02-26T13:47:26.509Z,1022.52
2018-02-26T13:48:40.634Z,1022.59
2018-02-26T13:49:42.493Z,1022.49
2018-02-26T13:50:44.370Z,1022.55
2018-02-26T13:51:46.231Z,1022.59
2018-02-26T13:52:48.049Z,1022.54
2018-02-26T13:53:49.860Z,1022.55
2018-02-26T13:54:51.724Z,1022.47
2018-02-26T13:55:53.600Z,1022.51
2018-02-26T13:56:55.479Z,1022.49
2018-02-26T13:58:09.622Z,1022.46
2018-02-26T13:59:11.486Z,1022.44
2018-02-26T14:00:13.364Z,1022.47
2018-02-26T14:01:15.260Z,1022.51
2018-02-26T14:02:17.033Z,1022.42
2018-02-26T14:03:18.826Z,1022.41
2018-02-26T14:04:20.705Z,1022.36
2018-02-26T14:05:22.585Z,1022.46
2018-02-26T14:06:24.441Z,1022.40
2018-02-26T14:07:38.613Z,1022.43
2018-02-26T14:08:40.475Z,1022.44
2018-02-26T14:09:42.353Z,1022.40
2018-02-26T14:10:44.248Z,1022.35
2018-02-26T14:11:46.091Z,1022.33
2018-02-26T14:12:47.894Z,1022.40
2018-02-26T14:13:49.766Z,1022.41
2018-02-26T14:14:51.645Z,1022.46
2018-02-26T14:15:53.517Z,1022.54
2018-02-26T14:17:07.641Z,1022.59
2018-02-26T14:18:09.533Z,1022.57
2018-02-26T14:19:11.449Z,1022.59
2018-02-26T14:20:13.334Z,1022.49
2018-02-26T14:21:15.190Z,1022.44
2018-02-26T14:22:16.943Z,1022.40
2018-02-26T14:23:18.802Z,1022.37
2018-02-26T14:24:20.756Z,1022.46
2018-02-26T14:25:22.553Z,1022.43
2018-02-26T14:26:36.697Z,1022.46
2018-02-26T14:27:38.574Z,1022.42
2018-02-26T14:28:40.473Z,1022.58
2018-02-26T14:29:42.349Z,1022.47
2018-02-26T14:30:44.147Z,1022.55
2018-02-26T14:31:45.974Z,1022.50
2018-02-26T14:32:47.838Z,1022.52
2018-02-26T14:33:49.761Z,1022.55
2018-02-26T14:34:51.667Z,1022.49
2018-02-26T14:36:05.854Z,1022.52
2018-02-26T14:37:07.758Z,1022.56
2018-02-26T14:38:09.634Z,1022.52
2018-02-26T14:39:11.514Z,1022.54
2018-02-26T14:40:13.308Z,1022.57
2018-02-26T14:41:15.098Z,1022.52
2018-02-26T14:42:16.961Z,1022.53
2018-02-26T14:43:18.846Z,1022.48
2018-02-26T14:44:20.712Z,1022.36
2018-02-26T14:45:34.846Z,1022.42
2018-02-26T14:46:36.691Z,1022.45
2018-02-26T14:47:38.553Z,1022.40
2018-02-26T14:48:40.433Z,1022.42
2018-02-26T14:49:42.230Z,1022.39
2018-02-26T14:50:44.018Z,1022.34
2018-02-26T14:51:45.880Z,1022.42
2018-02-26T14:52:47.754Z,1022.58
2018-02-26T14:53:49.654Z,1022.44
2018-02-26T14:55:03.855Z,1022.51
2018-02-26T14:56:05.714Z,1022.47
2018-02-26T14:57:07.566Z,1022.51
2018-02-26T14:58:09.448Z,1022.40
2018-02-26T14:59:11.261Z,1022.46
2018-02-26T15:00:13.123Z,1022.43
2018-02-26T15:01:14.986Z,1022.47
2018-02-26T15:02:16.903Z,1022.45
2018-02-26T15:03:18.800Z,1022.50
2018-02-26T15:04:32.985Z,1022.47
2018-02-26T15:05:34.855Z,1022.46
2018-02-26T15:06:36.744Z,1022.45
2018-02-26T15:07:38.675Z,1022.49
2018-02-26T15:08:40.519Z,1022.55
2018-02-26T15:09:42.335Z,1022.45
2018-02-26T15:10:44.191Z,1022.50
2018-02-26T15:11:46.049Z,1022.58
2018-02-26T15:12:47.916Z,1022.58
2018-02-26T15:14:02.114Z,1022.52
2018-02-26T15:15:03.966Z,1022.49
2018-02-26T15:16:05.834Z,1022.51
2018-02-26T15:17:07.686Z,1022.53
2018-02-26T15:18:09.483Z,1022.50
2018-02-26T15:19:11.292Z,1022.51
2018-02-26T15:20:13.150Z,1022.55
2018-02-26T15:21:15.025Z,1022.62
2018-02-26T15:22:16.904Z,1022.51
2018-02-26T15:23:31.081Z,1022.56
2018-02-26T15:24:32.948Z,1022.67
2018-02-26T15:25:34.815Z,1022.63
2018-02-26T15:26:36.692Z,1022.55
2018-02-26T15:27:38.488Z,1022.51
2018-02-26T15:28:40.410Z,1022.51
2018-02-26T15:29:42.174Z,1022.52
2018-02-26T15:30:44.032Z,1022.48
2018-02-26T15:31:45.911Z,1022.44
2018-02-26T15:33:00.055Z,1022.44
2018-02-26T15:34:01.908Z,1022.48
2018-02-26T15:35:03.767Z,1022.43
2018-02-26T15:36:05.644Z,1022.46
2018-02-26T15:37:07.461Z,1022.47
2018-02-26T15:38:09.258Z,1022.48
2018-02-26T15:39:11.121Z,1022.48
2018-02-26T15:40:12.996Z,1022.43
2018-02-26T15:41:14.857Z,1022.40
2018-02-26T15:42:28.984Z,1022.41
2018-02-26T15:43:30.839Z,1022.47
2018-02-26T15:44:32.753Z,1022.42
2018-02-26T15:45:34.627Z,1022.42
2018-02-26T15:46:36.440Z,1022.44
2018-02-26T15:47:38.282Z,1022.41
2018-02-26T15:48:40.134Z,1022.55
2018-02-26T15:49:42.045Z,1022.43
2018-02-26T15:50:43.926Z,1022.43
2018-02-26T15:51:58.102Z,1022.45
2018-02-26T15:52:59.970Z,1022.42
2018-02-26T15:54:01.850Z,1022.43
2018-02-26T15:55:03.724Z,1022.41
2018-02-26T15:56:05.556Z,1022.39
2018-02-26T15:57:07.355Z,1022.46
2018-02-26T15:58:09.251Z,1022.42
2018-02-26T15:59:11.128Z,1022.37
2018-02-26T16:00:13.018Z,1022.49
2018-02-26T16:01:27.167Z,1022.44
2018-02-26T16:02:29.039Z,1022.42
2018-02-26T16:03:30.900Z,1022.39
2018-02-26T16:04:32.754Z,1022.40
2018-02-26T16:05:34.571Z,1022.49
2018-02-26T16:06:36.368Z,1022.41
2018-02-26T16:07:38.245Z,1022.50
2018-02-26T16:08:40.124Z,1022.44
2018-02-26T16:09:41.977Z,1022.46
2018-02-26T16:10:56.108Z,1022.47
2018-02-26T16:11:57.980Z,1022.51
2018-02-26T16:12:59.835Z,1022.45
2018-02-26T16:14:01.715Z,1022.49
2018-02-26T16:15:03.506Z,1022.41
2018-02-26T16:16:05.296Z,1022.49
2018-02-26T16:17:07.172Z,1022.48
2018-02-26T16:18:09.056Z,1022.51
2018-02-26T16:19:10.911Z,1022.42
2018-02-26T16:20:25.092Z,1022.52
2018-02-26T16:21:26.948Z,1022.50
2018-02-26T16:22:28.803Z,1022.48
2018-02-26T16:23:30.676Z,1022.42
2018-02-26T16:24:32.466Z,1022.44
2018-02-26T16:25:34.283Z,1022.44
2018-02-26T16:26:36.154Z,1022.42
2018-02-26T16:27:38.077Z,1022.49
2018-02-26T16:28:39.908Z,1022.47
2018-02-26T16:29:54.051Z,1022.44
2018-02-26T16:30:55.931Z,1022.45
2018-02-26T16:31:57.800Z,1022.44
2018-02-26T16:32:59.672Z,1022.51
2018-02-26T16:34:01.478Z,1022.44
2018-02-26T16:35:03.274Z,1022.51
2018-02-26T16:36:05.125Z,1022.51
2018-02-26T16:37:06.993Z,1022.50
2018-02-26T16:38:08.850Z,1022.52
2018-02-26T16:39:23.024Z,1022.55
2018-02-26T16:40:24.898Z,1022.50
2018-02-26T16:41:26.756Z,1022.57
2018-02-26T16:42:28.629Z,1022.53
2018-02-26T16:43:30.438Z,1022.51
2018-02-26T16:44:32.241Z,1022.50
2018-02-26T16:45:34.102Z,1022.52
2018-02-26T16:46:35.950Z,1022.45
2018-02-26T16:47:37.813Z,1022.49
2018-02-26T16:48:51.934Z,1022.48
2018-02-26T16:49:53.784Z,1022.45
2018-02-26T16:50:55.646Z,1022.46
2018-02-26T16:51:57.510Z,1022.50
2018-02-26T16:52:59.296Z,1022.49
2018-02-26T16:54:01.171Z,1022.44
2018-02-26T16:55:02.992Z,1022.49
2018-02-26T16:56:04.860Z,1022.48
2018-02-26T16:57:06.748Z,1022.48
2018-02-26T16:58:20.851Z,1022.53
2018-02-26T16:59:22.714Z,1022.53
2018-02-26T17:00:24.561Z,1022.51
2018-02-26T17:01:26.426Z,1022.47
2018-02-26T17:02:28.228Z,1022.47
2018-02-26T17:03:30.042Z,1022.42
2018-02-26T17:04:31.888Z,1022.46
2018-02-26T17:05:33.747Z,1022.42
2018-02-26T17:06:35.605Z,1022.38
2018-02-26T17:07:49.742Z,1022.38
2018-02-26T17:08:51.613Z,1022.36
2018-02-26T17:09:53.502Z,1022.47
2018-02-26T17:10:55.330Z,1022.41
2018-02-26T17:11:57.118Z,1022.42
2018-02-26T17:12:58.929Z,1022.47
2018-02-26T17:14:00.881Z,1022.53
2018-02-26T17:15:02.724Z,1022.42
2018-02-26T17:16:04.639Z,1022.50
2018-02-26T17:17:18.770Z,1022.47
2018-02-26T17:18:20.688Z,1022.44
2018-02-26T17:19:22.582Z,1022.44
2018-02-26T17:20:24.680Z,1022.43
2018-02-26T17:21:26.496Z,1022.40
2018-02-26T17:22:28.311Z,1022.43
2018-02-26T17:23:30.180Z,1022.48
2018-02-26T17:24:32.079Z,1022.35
2018-02-26T17:25:33.989Z,1022.40
2018-02-26T17:26:48.204Z,1022.39
2018-02-26T17:27:50.098Z,1022.37
2018-02-26T17:28:51.947Z,1022.34
2018-02-26T17:29:53.792Z,1022.34
2018-02-26T17:30:55.582Z,1022.30
2018-02-26T17:31:57.368Z,1022.30
2018-02-26T17:32:59.290Z,1022.31
2018-02-26T17:34:01.173Z,1022.24
2018-02-26T17:35:03.042Z,1022.32
2018-02-26T17:36:17.152Z,1022.29
2018-02-26T17:37:19.002Z,1022.28
2018-02-26T17:38:20.859Z,1022.27
2018-02-26T17:39:22.727Z,1022.31
2018-02-26T17:40:24.510Z,1022.27
2018-02-26T17:41:26.300Z,1022.29
2018-02-26T17:42:28.150Z,1022.26
2018-02-26T17:43:30.029Z,1022.25
2018-02-26T17:44:31.880Z,1022.22
